<?xml version="1.0" encoding="UTF-8" standalone="no" ?>
<gpx xmlns="http://www.topografix.com/GPX/1/1" xmlns:xsi="http://www.w3.org/2001/XMLSchema-instance" xsi:schemaLocation="http://www.topografix.com/GPX/1/1 http://www.topografix.com/GPX/1/1/gpx.xsd" version="1.1" creator="VisuGPX - https://www.visugpx.com">
  <metadata>
    <name>Besseges - Le Ronc Rouge</name>
    <desc><![CDATA[Bessèges au coeur du pays minier cévenol avec visites des nombreuses curiosités.]]></desc>
  </metadata>
  <trk>
    <name><![CDATA[2013-02-05-01 Besseges Ronc Rouge]]></name>
    <extensions>
      <line xmlns="http://www.topografix.com/GPX/gpx_style/0/2">
        <color>0000FF</color>
        <width>4</width>
      </line>
    </extensions>
    <trkseg>
      <trkpt lat="44.29278" lon="4.09035">
        <ele>207</ele>
        <time>2013-02-05T13:08:37Z</time>
      </trkpt>
      <trkpt lat="44.29276" lon="4.0901">
        <ele>210</ele>
        <time>2013-02-05T13:08:57Z</time>
      </trkpt>
      <trkpt lat="44.29272" lon="4.08986">
        <ele>215</ele>
        <time>2013-02-05T13:09:14Z</time>
      </trkpt>
      <trkpt lat="44.29273" lon="4.08961">
        <ele>227</ele>
        <time>2013-02-05T13:09:37Z</time>
      </trkpt>
      <trkpt lat="44.29257" lon="4.08952">
        <ele>212</ele>
        <time>2013-02-05T13:09:59Z</time>
      </trkpt>
      <trkpt lat="44.2924" lon="4.08953">
        <ele>208</ele>
        <time>2013-02-05T13:10:14Z</time>
      </trkpt>
      <trkpt lat="44.29223" lon="4.08954">
        <ele>211</ele>
        <time>2013-02-05T13:10:31Z</time>
      </trkpt>
      <trkpt lat="44.29206" lon="4.08956">
        <ele>218</ele>
        <time>2013-02-05T13:10:48Z</time>
      </trkpt>
      <trkpt lat="44.29189" lon="4.08963">
        <ele>226</ele>
        <time>2013-02-05T13:11:05Z</time>
      </trkpt>
      <trkpt lat="44.29172" lon="4.08971">
        <ele>225</ele>
        <time>2013-02-05T13:11:22Z</time>
      </trkpt>
      <trkpt lat="44.29156" lon="4.0898">
        <ele>231</ele>
        <time>2013-02-05T13:11:35Z</time>
      </trkpt>
      <trkpt lat="44.2914" lon="4.08974">
        <ele>230</ele>
        <time>2013-02-05T13:11:50Z</time>
      </trkpt>
      <trkpt lat="44.29126" lon="4.0896">
        <ele>226</ele>
        <time>2013-02-05T13:12:08Z</time>
      </trkpt>
      <trkpt lat="44.29111" lon="4.08949">
        <ele>216</ele>
        <time>2013-02-05T13:12:20Z</time>
      </trkpt>
      <trkpt lat="44.29096" lon="4.08937">
        <ele>214</ele>
        <time>2013-02-05T13:12:34Z</time>
      </trkpt>
      <trkpt lat="44.29089" lon="4.08915">
        <ele>215</ele>
        <time>2013-02-05T13:12:54Z</time>
      </trkpt>
      <trkpt lat="44.29086" lon="4.08891">
        <ele>215</ele>
        <time>2013-02-05T13:13:17Z</time>
      </trkpt>
      <trkpt lat="44.2909" lon="4.08867">
        <ele>226</ele>
        <time>2013-02-05T13:13:43Z</time>
      </trkpt>
      <trkpt lat="44.29099" lon="4.08846">
        <ele>236</ele>
        <time>2013-02-05T13:14:11Z</time>
      </trkpt>
      <trkpt lat="44.29098" lon="4.08821">
        <ele>236</ele>
        <time>2013-02-05T13:14:40Z</time>
      </trkpt>
      <trkpt lat="44.29091" lon="4.08798">
        <ele>235</ele>
        <time>2013-02-05T13:15:16Z</time>
      </trkpt>
      <trkpt lat="44.29074" lon="4.08792">
        <ele>238</ele>
        <time>2013-02-05T13:15:39Z</time>
      </trkpt>
      <trkpt lat="44.29075" lon="4.08767">
        <ele>235</ele>
        <time>2013-02-05T13:16:11Z</time>
      </trkpt>
      <trkpt lat="44.29092" lon="4.0876">
        <ele>246</ele>
        <time>2013-02-05T13:16:35Z</time>
      </trkpt>
      <trkpt lat="44.29102" lon="4.0874">
        <ele>251</ele>
        <time>2013-02-05T13:17:02Z</time>
      </trkpt>
      <trkpt lat="44.29105" lon="4.08717">
        <ele>243</ele>
        <time>2013-02-05T13:17:31Z</time>
      </trkpt>
      <trkpt lat="44.29106" lon="4.08692">
        <ele>249</ele>
        <time>2013-02-05T13:17:59Z</time>
      </trkpt>
      <trkpt lat="44.29108" lon="4.08668">
        <ele>252</ele>
        <time>2013-02-05T13:18:32Z</time>
      </trkpt>
      <trkpt lat="44.291" lon="4.08647">
        <ele>255</ele>
        <time>2013-02-05T13:21:25Z</time>
      </trkpt>
      <trkpt lat="44.29084" lon="4.08639">
        <ele>263</ele>
        <time>2013-02-05T13:21:42Z</time>
      </trkpt>
      <trkpt lat="44.29076" lon="4.08618">
        <ele>261</ele>
        <time>2013-02-05T13:21:58Z</time>
      </trkpt>
      <trkpt lat="44.29067" lon="4.08597">
        <ele>249</ele>
        <time>2013-02-05T13:22:17Z</time>
      </trkpt>
      <trkpt lat="44.29051" lon="4.08587">
        <ele>245</ele>
        <time>2013-02-05T13:22:34Z</time>
      </trkpt>
      <trkpt lat="44.29034" lon="4.08585">
        <ele>260</ele>
        <time>2013-02-05T13:22:46Z</time>
      </trkpt>
      <trkpt lat="44.29017" lon="4.08589">
        <ele>265</ele>
        <time>2013-02-05T13:23:01Z</time>
      </trkpt>
      <trkpt lat="44.29" lon="4.08587">
        <ele>258</ele>
        <time>2013-02-05T13:23:19Z</time>
      </trkpt>
      <trkpt lat="44.28988" lon="4.08569">
        <ele>250</ele>
        <time>2013-02-05T13:23:33Z</time>
      </trkpt>
      <trkpt lat="44.28976" lon="4.08552">
        <ele>245</ele>
        <time>2013-02-05T13:23:47Z</time>
      </trkpt>
      <trkpt lat="44.28959" lon="4.08551">
        <ele>242</ele>
        <time>2013-02-05T13:24:06Z</time>
      </trkpt>
      <trkpt lat="44.28942" lon="4.08556">
        <ele>231</ele>
        <time>2013-02-05T13:24:28Z</time>
      </trkpt>
      <trkpt lat="44.28925" lon="4.08564">
        <ele>228</ele>
        <time>2013-02-05T13:24:48Z</time>
      </trkpt>
      <trkpt lat="44.2891" lon="4.08578">
        <ele>248</ele>
        <time>2013-02-05T13:25:00Z</time>
      </trkpt>
      <trkpt lat="44.289" lon="4.08598">
        <ele>271</ele>
        <time>2013-02-05T13:25:14Z</time>
      </trkpt>
      <trkpt lat="44.28887" lon="4.08615">
        <ele>253</ele>
        <time>2013-02-05T13:25:53Z</time>
      </trkpt>
      <trkpt lat="44.28874" lon="4.08599">
        <ele>260</ele>
        <time>2013-02-05T13:26:20Z</time>
      </trkpt>
      <trkpt lat="44.28858" lon="4.08592">
        <ele>274</ele>
        <time>2013-02-05T13:26:52Z</time>
      </trkpt>
      <trkpt lat="44.28845" lon="4.08575">
        <ele>268</ele>
        <time>2013-02-05T13:27:20Z</time>
      </trkpt>
      <trkpt lat="44.28833" lon="4.08556">
        <ele>273</ele>
        <time>2013-02-05T13:27:58Z</time>
      </trkpt>
      <trkpt lat="44.28826" lon="4.08534">
        <ele>277</ele>
        <time>2013-02-05T13:28:30Z</time>
      </trkpt>
      <trkpt lat="44.28813" lon="4.08518">
        <ele>287</ele>
        <time>2013-02-05T13:29:05Z</time>
      </trkpt>
      <trkpt lat="44.28798" lon="4.08506">
        <ele>282</ele>
        <time>2013-02-05T13:29:37Z</time>
      </trkpt>
      <trkpt lat="44.28781" lon="4.08495">
        <ele>297</ele>
        <time>2013-02-05T13:30:16Z</time>
      </trkpt>
      <trkpt lat="44.28764" lon="4.08489">
        <ele>304</ele>
        <time>2013-02-05T13:30:59Z</time>
      </trkpt>
      <trkpt lat="44.28747" lon="4.08491">
        <ele>308</ele>
        <time>2013-02-05T13:31:53Z</time>
      </trkpt>
      <trkpt lat="44.28735" lon="4.08473">
        <ele>298</ele>
        <time>2013-02-05T13:32:29Z</time>
      </trkpt>
      <trkpt lat="44.28725" lon="4.08453">
        <ele>304</ele>
        <time>2013-02-05T13:32:48Z</time>
      </trkpt>
      <trkpt lat="44.28717" lon="4.08431">
        <ele>300</ele>
        <time>2013-02-05T13:33:03Z</time>
      </trkpt>
      <trkpt lat="44.28713" lon="4.08408">
        <ele>300</ele>
        <time>2013-02-05T13:33:20Z</time>
      </trkpt>
      <trkpt lat="44.28698" lon="4.08394">
        <ele>291</ele>
        <time>2013-02-05T13:35:31Z</time>
      </trkpt>
      <trkpt lat="44.28698" lon="4.08369">
        <ele>310</ele>
        <time>2013-02-05T13:35:54Z</time>
      </trkpt>
      <trkpt lat="44.2871" lon="4.08387">
        <ele>308</ele>
        <time>2013-02-05T13:36:50Z</time>
      </trkpt>
      <trkpt lat="44.28721" lon="4.08407">
        <ele>306</ele>
        <time>2013-02-05T13:37:30Z</time>
      </trkpt>
      <trkpt lat="44.28723" lon="4.08432">
        <ele>310</ele>
        <time>2013-02-05T13:37:50Z</time>
      </trkpt>
      <trkpt lat="44.28728" lon="4.08456">
        <ele>313</ele>
        <time>2013-02-05T13:38:09Z</time>
      </trkpt>
      <trkpt lat="44.28737" lon="4.08476">
        <ele>313</ele>
        <time>2013-02-05T13:38:27Z</time>
      </trkpt>
      <trkpt lat="44.28751" lon="4.08491">
        <ele>318</ele>
        <time>2013-02-05T13:38:59Z</time>
      </trkpt>
      <trkpt lat="44.28762" lon="4.08511">
        <ele>314</ele>
        <time>2013-02-05T13:39:36Z</time>
      </trkpt>
      <trkpt lat="44.28774" lon="4.08529">
        <ele>313</ele>
        <time>2013-02-05T13:39:56Z</time>
      </trkpt>
      <trkpt lat="44.28785" lon="4.08547">
        <ele>315</ele>
        <time>2013-02-05T13:40:13Z</time>
      </trkpt>
      <trkpt lat="44.28791" lon="4.0857">
        <ele>315</ele>
        <time>2013-02-05T13:40:33Z</time>
      </trkpt>
      <trkpt lat="44.28793" lon="4.08595">
        <ele>313</ele>
        <time>2013-02-05T13:40:51Z</time>
      </trkpt>
      <trkpt lat="44.28788" lon="4.08618">
        <ele>310</ele>
        <time>2013-02-05T13:41:09Z</time>
      </trkpt>
      <trkpt lat="44.28792" lon="4.08643">
        <ele>316</ele>
        <time>2013-02-05T13:41:24Z</time>
      </trkpt>
      <trkpt lat="44.28798" lon="4.08665">
        <ele>318</ele>
        <time>2013-02-05T13:41:41Z</time>
      </trkpt>
      <trkpt lat="44.28806" lon="4.08687">
        <ele>318</ele>
        <time>2013-02-05T13:41:58Z</time>
      </trkpt>
      <trkpt lat="44.28815" lon="4.08708">
        <ele>314</ele>
        <time>2013-02-05T13:42:17Z</time>
      </trkpt>
      <trkpt lat="44.28821" lon="4.08731">
        <ele>314</ele>
        <time>2013-02-05T13:42:33Z</time>
      </trkpt>
      <trkpt lat="44.28828" lon="4.08753">
        <ele>315</ele>
        <time>2013-02-05T13:42:49Z</time>
      </trkpt>
      <trkpt lat="44.28834" lon="4.08776">
        <ele>312</ele>
        <time>2013-02-05T13:43:06Z</time>
      </trkpt>
      <trkpt lat="44.28836" lon="4.08799">
        <ele>315</ele>
        <time>2013-02-05T13:43:21Z</time>
      </trkpt>
      <trkpt lat="44.28842" lon="4.08822">
        <ele>314</ele>
        <time>2013-02-05T13:43:37Z</time>
      </trkpt>
      <trkpt lat="44.28847" lon="4.08845">
        <ele>309</ele>
        <time>2013-02-05T13:43:56Z</time>
      </trkpt>
      <trkpt lat="44.28855" lon="4.08866">
        <ele>311</ele>
        <time>2013-02-05T13:44:12Z</time>
      </trkpt>
      <trkpt lat="44.28865" lon="4.08887">
        <ele>315</ele>
        <time>2013-02-05T13:44:29Z</time>
      </trkpt>
      <trkpt lat="44.28874" lon="4.08908">
        <ele>311</ele>
        <time>2013-02-05T13:44:48Z</time>
      </trkpt>
      <trkpt lat="44.28878" lon="4.08932">
        <ele>311</ele>
        <time>2013-02-05T13:45:06Z</time>
      </trkpt>
      <trkpt lat="44.28879" lon="4.08957">
        <ele>311</ele>
        <time>2013-02-05T13:45:27Z</time>
      </trkpt>
      <trkpt lat="44.2888" lon="4.08981">
        <ele>320</ele>
        <time>2013-02-05T13:45:42Z</time>
      </trkpt>
      <trkpt lat="44.28882" lon="4.09006">
        <ele>315</ele>
        <time>2013-02-05T13:45:59Z</time>
      </trkpt>
      <trkpt lat="44.28884" lon="4.0903">
        <ele>318</ele>
        <time>2013-02-05T13:46:13Z</time>
      </trkpt>
      <trkpt lat="44.28886" lon="4.09054">
        <ele>320</ele>
        <time>2013-02-05T13:46:27Z</time>
      </trkpt>
      <trkpt lat="44.28891" lon="4.09077">
        <ele>323</ele>
        <time>2013-02-05T13:46:46Z</time>
      </trkpt>
      <trkpt lat="44.28892" lon="4.09101">
        <ele>322</ele>
        <time>2013-02-05T13:47:04Z</time>
      </trkpt>
      <trkpt lat="44.28893" lon="4.09125">
        <ele>314</ele>
        <time>2013-02-05T13:47:20Z</time>
      </trkpt>
      <trkpt lat="44.28888" lon="4.09148">
        <ele>310</ele>
        <time>2013-02-05T13:47:36Z</time>
      </trkpt>
      <trkpt lat="44.28874" lon="4.09163">
        <ele>307</ele>
        <time>2013-02-05T13:47:54Z</time>
      </trkpt>
      <trkpt lat="44.28857" lon="4.09162">
        <ele>294</ele>
        <time>2013-02-05T13:48:11Z</time>
      </trkpt>
      <trkpt lat="44.2884" lon="4.09164">
        <ele>296</ele>
        <time>2013-02-05T13:48:27Z</time>
      </trkpt>
      <trkpt lat="44.28823" lon="4.09156">
        <ele>306</ele>
        <time>2013-02-05T13:51:50Z</time>
      </trkpt>
      <trkpt lat="44.28811" lon="4.09173">
        <ele>309</ele>
        <time>2013-02-05T13:53:48Z</time>
      </trkpt>
      <trkpt lat="44.28794" lon="4.09178">
        <ele>304</ele>
        <time>2013-02-05T13:54:11Z</time>
      </trkpt>
      <trkpt lat="44.28776" lon="4.09175">
        <ele>295</ele>
        <time>2013-02-05T13:54:38Z</time>
      </trkpt>
      <trkpt lat="44.28761" lon="4.09163">
        <ele>292</ele>
        <time>2013-02-05T13:54:59Z</time>
      </trkpt>
      <trkpt lat="44.28743" lon="4.09165">
        <ele>292</ele>
        <time>2013-02-05T13:55:18Z</time>
      </trkpt>
      <trkpt lat="44.28727" lon="4.09176">
        <ele>306</ele>
        <time>2013-02-05T13:55:37Z</time>
      </trkpt>
      <trkpt lat="44.28711" lon="4.09181">
        <ele>304</ele>
        <time>2013-02-05T13:55:55Z</time>
      </trkpt>
      <trkpt lat="44.28693" lon="4.09185">
        <ele>307</ele>
        <time>2013-02-05T13:56:16Z</time>
      </trkpt>
      <trkpt lat="44.28681" lon="4.09203">
        <ele>317</ele>
        <time>2013-02-05T13:56:37Z</time>
      </trkpt>
      <trkpt lat="44.28676" lon="4.09227">
        <ele>324</ele>
        <time>2013-02-05T13:56:53Z</time>
      </trkpt>
      <trkpt lat="44.2867" lon="4.09251">
        <ele>328</ele>
        <time>2013-02-05T13:57:15Z</time>
      </trkpt>
      <trkpt lat="44.28671" lon="4.09275">
        <ele>333</ele>
        <time>2013-02-05T13:57:37Z</time>
      </trkpt>
      <trkpt lat="44.28673" lon="4.093">
        <ele>338</ele>
        <time>2013-02-05T13:57:59Z</time>
      </trkpt>
      <trkpt lat="44.28675" lon="4.09324">
        <ele>338</ele>
        <time>2013-02-05T13:58:20Z</time>
      </trkpt>
      <trkpt lat="44.28673" lon="4.09349">
        <ele>338</ele>
        <time>2013-02-05T13:58:40Z</time>
      </trkpt>
      <trkpt lat="44.28672" lon="4.09373">
        <ele>339</ele>
        <time>2013-02-05T13:58:59Z</time>
      </trkpt>
      <trkpt lat="44.28671" lon="4.09398">
        <ele>336</ele>
        <time>2013-02-05T13:59:20Z</time>
      </trkpt>
      <trkpt lat="44.28672" lon="4.09422">
        <ele>335</ele>
        <time>2013-02-05T13:59:39Z</time>
      </trkpt>
      <trkpt lat="44.2867" lon="4.09446">
        <ele>337</ele>
        <time>2013-02-05T13:59:58Z</time>
      </trkpt>
      <trkpt lat="44.28668" lon="4.0947">
        <ele>340</ele>
        <time>2013-02-05T14:00:18Z</time>
      </trkpt>
      <trkpt lat="44.28664" lon="4.09495">
        <ele>338</ele>
        <time>2013-02-05T14:00:41Z</time>
      </trkpt>
      <trkpt lat="44.28661" lon="4.09519">
        <ele>339</ele>
        <time>2013-02-05T14:01:04Z</time>
      </trkpt>
      <trkpt lat="44.28656" lon="4.09544">
        <ele>340</ele>
        <time>2013-02-05T14:01:25Z</time>
      </trkpt>
      <trkpt lat="44.28653" lon="4.09568">
        <ele>342</ele>
        <time>2013-02-05T14:01:46Z</time>
      </trkpt>
      <trkpt lat="44.28652" lon="4.09592">
        <ele>346</ele>
        <time>2013-02-05T14:02:03Z</time>
      </trkpt>
      <trkpt lat="44.28648" lon="4.09616">
        <ele>349</ele>
        <time>2013-02-05T14:02:25Z</time>
      </trkpt>
      <trkpt lat="44.28647" lon="4.0964">
        <ele>350</ele>
        <time>2013-02-05T14:02:47Z</time>
      </trkpt>
      <trkpt lat="44.28642" lon="4.09664">
        <ele>352</ele>
        <time>2013-02-05T14:03:09Z</time>
      </trkpt>
      <trkpt lat="44.28637" lon="4.09687">
        <ele>352</ele>
        <time>2013-02-05T14:03:29Z</time>
      </trkpt>
      <trkpt lat="44.28631" lon="4.0971">
        <ele>351</ele>
        <time>2013-02-05T14:03:54Z</time>
      </trkpt>
      <trkpt lat="44.28617" lon="4.09726">
        <ele>350</ele>
        <time>2013-02-05T14:07:24Z</time>
      </trkpt>
      <trkpt lat="44.28605" lon="4.09744">
        <ele>357</ele>
        <time>2013-02-05T14:08:03Z</time>
      </trkpt>
      <trkpt lat="44.28588" lon="4.09746">
        <ele>360</ele>
        <time>2013-02-05T14:09:05Z</time>
      </trkpt>
      <trkpt lat="44.28574" lon="4.0976">
        <ele>371</ele>
        <time>2013-02-05T14:09:52Z</time>
      </trkpt>
      <trkpt lat="44.28567" lon="4.09783">
        <ele>374</ele>
        <time>2013-02-05T14:10:33Z</time>
      </trkpt>
      <trkpt lat="44.2856" lon="4.09806">
        <ele>375</ele>
        <time>2013-02-05T14:11:11Z</time>
      </trkpt>
      <trkpt lat="44.28556" lon="4.0983">
        <ele>374</ele>
        <time>2013-02-05T14:11:48Z</time>
      </trkpt>
      <trkpt lat="44.28553" lon="4.09855">
        <ele>372</ele>
        <time>2013-02-05T14:12:20Z</time>
      </trkpt>
      <trkpt lat="44.28552" lon="4.09879">
        <ele>373</ele>
        <time>2013-02-05T14:12:53Z</time>
      </trkpt>
      <trkpt lat="44.28544" lon="4.09901">
        <ele>368</ele>
        <time>2013-02-05T14:13:22Z</time>
      </trkpt>
      <trkpt lat="44.28531" lon="4.09917">
        <ele>367</ele>
        <time>2013-02-05T14:13:52Z</time>
      </trkpt>
      <trkpt lat="44.2852" lon="4.09937">
        <ele>368</ele>
        <time>2013-02-05T14:14:07Z</time>
      </trkpt>
      <trkpt lat="44.28503" lon="4.09942">
        <ele>372</ele>
        <time>2013-02-05T14:14:41Z</time>
      </trkpt>
      <trkpt lat="44.28486" lon="4.09937">
        <ele>383</ele>
        <time>2013-02-05T14:15:48Z</time>
      </trkpt>
      <trkpt lat="44.2847" lon="4.09947">
        <ele>378</ele>
        <time>2013-02-05T14:16:17Z</time>
      </trkpt>
      <trkpt lat="44.28453" lon="4.09952">
        <ele>377</ele>
        <time>2013-02-05T14:16:47Z</time>
      </trkpt>
      <trkpt lat="44.28435" lon="4.09955">
        <ele>380</ele>
        <time>2013-02-05T14:17:13Z</time>
      </trkpt>
      <trkpt lat="44.28418" lon="4.09958">
        <ele>380</ele>
        <time>2013-02-05T14:17:40Z</time>
      </trkpt>
      <trkpt lat="44.284" lon="4.09964">
        <ele>379</ele>
        <time>2013-02-05T14:18:13Z</time>
      </trkpt>
      <trkpt lat="44.28391" lon="4.09985">
        <ele>390</ele>
        <time>2013-02-05T14:20:11Z</time>
      </trkpt>
      <trkpt lat="44.28378" lon="4.10003">
        <ele>380</ele>
        <time>2013-02-05T14:20:41Z</time>
      </trkpt>
      <trkpt lat="44.28375" lon="4.10028">
        <ele>380</ele>
        <time>2013-02-05T14:21:11Z</time>
      </trkpt>
      <trkpt lat="44.28374" lon="4.10052">
        <ele>383</ele>
        <time>2013-02-05T14:21:34Z</time>
      </trkpt>
      <trkpt lat="44.28371" lon="4.10077">
        <ele>382</ele>
        <time>2013-02-05T14:21:54Z</time>
      </trkpt>
      <trkpt lat="44.28371" lon="4.10101">
        <ele>382</ele>
        <time>2013-02-05T14:22:24Z</time>
      </trkpt>
      <trkpt lat="44.28375" lon="4.10125">
        <ele>383</ele>
        <time>2013-02-05T14:22:46Z</time>
      </trkpt>
      <trkpt lat="44.28372" lon="4.10149">
        <ele>381</ele>
        <time>2013-02-05T14:23:07Z</time>
      </trkpt>
      <trkpt lat="44.28369" lon="4.10173">
        <ele>384</ele>
        <time>2013-02-05T14:23:29Z</time>
      </trkpt>
      <trkpt lat="44.28362" lon="4.10195">
        <ele>388</ele>
        <time>2013-02-05T14:23:56Z</time>
      </trkpt>
      <trkpt lat="44.2836" lon="4.1022">
        <ele>385</ele>
        <time>2013-02-05T14:24:20Z</time>
      </trkpt>
      <trkpt lat="44.28366" lon="4.10243">
        <ele>391</ele>
        <time>2013-02-05T14:24:55Z</time>
      </trkpt>
      <trkpt lat="44.28367" lon="4.10268">
        <ele>385</ele>
        <time>2013-02-05T14:25:17Z</time>
      </trkpt>
      <trkpt lat="44.28375" lon="4.1029">
        <ele>386</ele>
        <time>2013-02-05T14:25:48Z</time>
      </trkpt>
      <trkpt lat="44.2838" lon="4.10314">
        <ele>388</ele>
        <time>2013-02-05T14:26:07Z</time>
      </trkpt>
      <trkpt lat="44.28374" lon="4.10338">
        <ele>387</ele>
        <time>2013-02-05T14:26:31Z</time>
      </trkpt>
      <trkpt lat="44.28362" lon="4.10357">
        <ele>384</ele>
        <time>2013-02-05T14:26:56Z</time>
      </trkpt>
      <trkpt lat="44.28349" lon="4.10374">
        <ele>380</ele>
        <time>2013-02-05T14:27:28Z</time>
      </trkpt>
      <trkpt lat="44.28341" lon="4.10395">
        <ele>380</ele>
        <time>2013-02-05T14:27:52Z</time>
      </trkpt>
      <trkpt lat="44.28329" lon="4.10414">
        <ele>379</ele>
        <time>2013-02-05T14:28:24Z</time>
      </trkpt>
      <trkpt lat="44.28315" lon="4.10428">
        <ele>373</ele>
        <time>2013-02-05T14:28:45Z</time>
      </trkpt>
      <trkpt lat="44.28298" lon="4.10435">
        <ele>367</ele>
        <time>2013-02-05T14:29:50Z</time>
      </trkpt>
      <trkpt lat="44.28295" lon="4.1041">
        <ele>376</ele>
        <time>2013-02-05T14:30:45Z</time>
      </trkpt>
      <trkpt lat="44.28312" lon="4.10405">
        <ele>394</ele>
        <time>2013-02-05T14:31:49Z</time>
      </trkpt>
      <trkpt lat="44.28314" lon="4.1038">
        <ele>391</ele>
        <time>2013-02-05T14:33:15Z</time>
      </trkpt>
      <trkpt lat="44.28313" lon="4.10356">
        <ele>389</ele>
        <time>2013-02-05T14:40:25Z</time>
      </trkpt>
      <trkpt lat="44.28319" lon="4.10333">
        <ele>391</ele>
        <time>2013-02-05T14:40:57Z</time>
      </trkpt>
      <trkpt lat="44.28319" lon="4.10308">
        <ele>385</ele>
        <time>2013-02-05T14:41:25Z</time>
      </trkpt>
      <trkpt lat="44.28317" lon="4.10284">
        <ele>379</ele>
        <time>2013-02-05T14:41:52Z</time>
      </trkpt>
      <trkpt lat="44.28313" lon="4.1026">
        <ele>373</ele>
        <time>2013-02-05T14:42:15Z</time>
      </trkpt>
      <trkpt lat="44.28313" lon="4.10235">
        <ele>370</ele>
        <time>2013-02-05T14:42:44Z</time>
      </trkpt>
      <trkpt lat="44.28309" lon="4.10211">
        <ele>365</ele>
        <time>2013-02-05T14:43:09Z</time>
      </trkpt>
      <trkpt lat="44.28316" lon="4.10188">
        <ele>371</ele>
        <time>2013-02-05T14:43:36Z</time>
      </trkpt>
      <trkpt lat="44.28317" lon="4.10163">
        <ele>379</ele>
        <time>2013-02-05T14:44:00Z</time>
      </trkpt>
      <trkpt lat="44.2832" lon="4.10139">
        <ele>387</ele>
        <time>2013-02-05T14:44:30Z</time>
      </trkpt>
      <trkpt lat="44.28336" lon="4.1013">
        <ele>389</ele>
        <time>2013-02-05T14:45:25Z</time>
      </trkpt>
      <trkpt lat="44.2832" lon="4.10119">
        <ele>380</ele>
        <time>2013-02-05T14:47:56Z</time>
      </trkpt>
      <trkpt lat="44.2832" lon="4.10095">
        <ele>368</ele>
        <time>2013-02-05T14:48:24Z</time>
      </trkpt>
      <trkpt lat="44.28326" lon="4.10072">
        <ele>365</ele>
        <time>2013-02-05T14:48:44Z</time>
      </trkpt>
      <trkpt lat="44.28328" lon="4.10048">
        <ele>371</ele>
        <time>2013-02-05T14:49:06Z</time>
      </trkpt>
      <trkpt lat="44.28334" lon="4.10024">
        <ele>380</ele>
        <time>2013-02-05T14:49:24Z</time>
      </trkpt>
      <trkpt lat="44.28342" lon="4.10002">
        <ele>372</ele>
        <time>2013-02-05T14:49:51Z</time>
      </trkpt>
      <trkpt lat="44.28349" lon="4.09979">
        <ele>367</ele>
        <time>2013-02-05T14:50:14Z</time>
      </trkpt>
      <trkpt lat="44.28356" lon="4.09958">
        <ele>370</ele>
        <time>2013-02-05T14:50:32Z</time>
      </trkpt>
      <trkpt lat="44.28365" lon="4.09936">
        <ele>374</ele>
        <time>2013-02-05T14:50:52Z</time>
      </trkpt>
      <trkpt lat="44.28371" lon="4.09914">
        <ele>387</ele>
        <time>2013-02-05T14:51:11Z</time>
      </trkpt>
      <trkpt lat="44.28383" lon="4.09895">
        <ele>395</ele>
        <time>2013-02-05T14:51:41Z</time>
      </trkpt>
      <trkpt lat="44.28392" lon="4.09874">
        <ele>380</ele>
        <time>2013-02-05T14:52:14Z</time>
      </trkpt>
      <trkpt lat="44.28401" lon="4.09852">
        <ele>380</ele>
        <time>2013-02-05T14:52:36Z</time>
      </trkpt>
      <trkpt lat="44.28407" lon="4.0983">
        <ele>384</ele>
        <time>2013-02-05T14:52:56Z</time>
      </trkpt>
      <trkpt lat="44.28414" lon="4.09807">
        <ele>390</ele>
        <time>2013-02-05T14:53:15Z</time>
      </trkpt>
      <trkpt lat="44.28421" lon="4.09784">
        <ele>395</ele>
        <time>2013-02-05T14:53:38Z</time>
      </trkpt>
      <trkpt lat="44.28427" lon="4.09761">
        <ele>394</ele>
        <time>2013-02-05T14:54:05Z</time>
      </trkpt>
      <trkpt lat="44.28431" lon="4.09736">
        <ele>408</ele>
        <time>2013-02-05T14:57:12Z</time>
      </trkpt>
      <trkpt lat="44.28432" lon="4.09711">
        <ele>401</ele>
        <time>2013-02-05T14:58:50Z</time>
      </trkpt>
      <trkpt lat="44.28443" lon="4.09692">
        <ele>394</ele>
        <time>2013-02-05T15:00:07Z</time>
      </trkpt>
      <trkpt lat="44.2845" lon="4.09669">
        <ele>395</ele>
        <time>2013-02-05T15:00:28Z</time>
      </trkpt>
      <trkpt lat="44.2846" lon="4.09648">
        <ele>396</ele>
        <time>2013-02-05T15:00:53Z</time>
      </trkpt>
      <trkpt lat="44.28471" lon="4.09629">
        <ele>395</ele>
        <time>2013-02-05T15:01:19Z</time>
      </trkpt>
      <trkpt lat="44.2848" lon="4.09608">
        <ele>396</ele>
        <time>2013-02-05T15:01:43Z</time>
      </trkpt>
      <trkpt lat="44.28492" lon="4.09589">
        <ele>389</ele>
        <time>2013-02-05T15:02:11Z</time>
      </trkpt>
      <trkpt lat="44.28504" lon="4.09571">
        <ele>389</ele>
        <time>2013-02-05T15:02:34Z</time>
      </trkpt>
      <trkpt lat="44.28514" lon="4.09551">
        <ele>391</ele>
        <time>2013-02-05T15:03:00Z</time>
      </trkpt>
      <trkpt lat="44.28517" lon="4.09526">
        <ele>386</ele>
        <time>2013-02-05T15:03:28Z</time>
      </trkpt>
      <trkpt lat="44.28519" lon="4.09502">
        <ele>384</ele>
        <time>2013-02-05T15:03:53Z</time>
      </trkpt>
      <trkpt lat="44.28521" lon="4.09477">
        <ele>384</ele>
        <time>2013-02-05T15:04:13Z</time>
      </trkpt>
      <trkpt lat="44.2852" lon="4.09453">
        <ele>374</ele>
        <time>2013-02-05T15:04:43Z</time>
      </trkpt>
      <trkpt lat="44.28517" lon="4.09429">
        <ele>377</ele>
        <time>2013-02-05T15:05:09Z</time>
      </trkpt>
      <trkpt lat="44.28518" lon="4.09404">
        <ele>375</ele>
        <time>2013-02-05T15:05:37Z</time>
      </trkpt>
      <trkpt lat="44.28514" lon="4.0938">
        <ele>374</ele>
        <time>2013-02-05T15:05:58Z</time>
      </trkpt>
      <trkpt lat="44.2851" lon="4.09356">
        <ele>375</ele>
        <time>2013-02-05T15:06:29Z</time>
      </trkpt>
      <trkpt lat="44.28512" lon="4.09332">
        <ele>374</ele>
        <time>2013-02-05T15:06:53Z</time>
      </trkpt>
      <trkpt lat="44.28514" lon="4.09307">
        <ele>377</ele>
        <time>2013-02-05T15:07:18Z</time>
      </trkpt>
      <trkpt lat="44.28519" lon="4.09283">
        <ele>373</ele>
        <time>2013-02-05T15:07:40Z</time>
      </trkpt>
      <trkpt lat="44.28517" lon="4.09258">
        <ele>373</ele>
        <time>2013-02-05T15:08:04Z</time>
      </trkpt>
      <trkpt lat="44.28525" lon="4.09236">
        <ele>370</ele>
        <time>2013-02-05T15:08:23Z</time>
      </trkpt>
      <trkpt lat="44.28528" lon="4.09212">
        <ele>368</ele>
        <time>2013-02-05T15:08:42Z</time>
      </trkpt>
      <trkpt lat="44.28535" lon="4.09189">
        <ele>371</ele>
        <time>2013-02-05T15:09:16Z</time>
      </trkpt>
      <trkpt lat="44.2854" lon="4.09166">
        <ele>368</ele>
        <time>2013-02-05T15:09:35Z</time>
      </trkpt>
      <trkpt lat="44.28544" lon="4.09142">
        <ele>384</ele>
        <time>2013-02-05T15:10:24Z</time>
      </trkpt>
      <trkpt lat="44.28549" lon="4.09118">
        <ele>379</ele>
        <time>2013-02-05T15:10:44Z</time>
      </trkpt>
      <trkpt lat="44.2855" lon="4.09094">
        <ele>375</ele>
        <time>2013-02-05T15:11:02Z</time>
      </trkpt>
      <trkpt lat="44.28554" lon="4.0907">
        <ele>371</ele>
        <time>2013-02-05T15:11:21Z</time>
      </trkpt>
      <trkpt lat="44.28558" lon="4.09046">
        <ele>376</ele>
        <time>2013-02-05T15:11:37Z</time>
      </trkpt>
      <trkpt lat="44.28564" lon="4.09023">
        <ele>373</ele>
        <time>2013-02-05T15:11:55Z</time>
      </trkpt>
      <trkpt lat="44.28578" lon="4.09009">
        <ele>383</ele>
        <time>2013-02-05T15:12:10Z</time>
      </trkpt>
      <trkpt lat="44.2859" lon="4.08992">
        <ele>389</ele>
        <time>2013-02-05T15:12:28Z</time>
      </trkpt>
      <trkpt lat="44.28596" lon="4.08969">
        <ele>388</ele>
        <time>2013-02-05T15:12:49Z</time>
      </trkpt>
      <trkpt lat="44.28596" lon="4.08944">
        <ele>385</ele>
        <time>2013-02-05T15:13:10Z</time>
      </trkpt>
      <trkpt lat="44.28603" lon="4.08921">
        <ele>380</ele>
        <time>2013-02-05T15:13:29Z</time>
      </trkpt>
      <trkpt lat="44.28607" lon="4.08897">
        <ele>386</ele>
        <time>2013-02-05T15:13:46Z</time>
      </trkpt>
      <trkpt lat="44.28603" lon="4.08873">
        <ele>392</ele>
        <time>2013-02-05T15:14:03Z</time>
      </trkpt>
      <trkpt lat="44.28599" lon="4.0885">
        <ele>396</ele>
        <time>2013-02-05T15:14:19Z</time>
      </trkpt>
      <trkpt lat="44.28593" lon="4.08828">
        <ele>399</ele>
        <time>2013-02-05T15:14:37Z</time>
      </trkpt>
      <trkpt lat="44.2858" lon="4.08811">
        <ele>400</ele>
        <time>2013-02-05T15:14:59Z</time>
      </trkpt>
      <trkpt lat="44.28567" lon="4.08794">
        <ele>404</ele>
        <time>2013-02-05T15:15:16Z</time>
      </trkpt>
      <trkpt lat="44.28557" lon="4.08774">
        <ele>408</ele>
        <time>2013-02-05T15:15:33Z</time>
      </trkpt>
      <trkpt lat="44.28548" lon="4.08753">
        <ele>412</ele>
        <time>2013-02-05T15:15:51Z</time>
      </trkpt>
      <trkpt lat="44.28539" lon="4.08732">
        <ele>420</ele>
        <time>2013-02-05T15:16:06Z</time>
      </trkpt>
      <trkpt lat="44.28524" lon="4.08719">
        <ele>414</ele>
        <time>2013-02-05T15:19:03Z</time>
      </trkpt>
      <trkpt lat="44.28512" lon="4.087">
        <ele>419</ele>
        <time>2013-02-05T15:19:59Z</time>
      </trkpt>
      <trkpt lat="44.28496" lon="4.08689">
        <ele>413</ele>
        <time>2013-02-05T15:20:58Z</time>
      </trkpt>
      <trkpt lat="44.28487" lon="4.08668">
        <ele>411</ele>
        <time>2013-02-05T15:23:40Z</time>
      </trkpt>
      <trkpt lat="44.28499" lon="4.08687">
        <ele>418</ele>
        <time>2013-02-05T15:25:13Z</time>
      </trkpt>
      <trkpt lat="44.28489" lon="4.08665">
        <ele>416</ele>
        <time>2013-02-05T15:26:18Z</time>
      </trkpt>
      <trkpt lat="44.28485" lon="4.08641">
        <ele>406</ele>
        <time>2013-02-05T15:26:55Z</time>
      </trkpt>
      <trkpt lat="44.28477" lon="4.0862">
        <ele>412</ele>
        <time>2013-02-05T15:27:20Z</time>
      </trkpt>
      <trkpt lat="44.2847" lon="4.08597">
        <ele>410</ele>
        <time>2013-02-05T15:27:46Z</time>
      </trkpt>
      <trkpt lat="44.28466" lon="4.08573">
        <ele>409</ele>
        <time>2013-02-05T15:28:10Z</time>
      </trkpt>
      <trkpt lat="44.28462" lon="4.08548">
        <ele>408</ele>
        <time>2013-02-05T15:28:38Z</time>
      </trkpt>
      <trkpt lat="44.28463" lon="4.08524">
        <ele>403</ele>
        <time>2013-02-05T15:29:05Z</time>
      </trkpt>
      <trkpt lat="44.28462" lon="4.085">
        <ele>405</ele>
        <time>2013-02-05T15:29:22Z</time>
      </trkpt>
      <trkpt lat="44.2846" lon="4.08475">
        <ele>407</ele>
        <time>2013-02-05T15:29:37Z</time>
      </trkpt>
      <trkpt lat="44.28465" lon="4.08451">
        <ele>408</ele>
        <time>2013-02-05T15:29:52Z</time>
      </trkpt>
      <trkpt lat="44.28474" lon="4.0843">
        <ele>405</ele>
        <time>2013-02-05T15:30:08Z</time>
      </trkpt>
      <trkpt lat="44.28487" lon="4.08414">
        <ele>397</ele>
        <time>2013-02-05T15:30:23Z</time>
      </trkpt>
      <trkpt lat="44.28495" lon="4.08393">
        <ele>396</ele>
        <time>2013-02-05T15:30:40Z</time>
      </trkpt>
      <trkpt lat="44.28498" lon="4.0837">
        <ele>399</ele>
        <time>2013-02-05T15:30:53Z</time>
      </trkpt>
      <trkpt lat="44.28506" lon="4.08347">
        <ele>393</ele>
        <time>2013-02-05T15:31:09Z</time>
      </trkpt>
      <trkpt lat="44.28512" lon="4.08324">
        <ele>398</ele>
        <time>2013-02-05T15:31:23Z</time>
      </trkpt>
      <trkpt lat="44.28517" lon="4.08301">
        <ele>399</ele>
        <time>2013-02-05T15:31:37Z</time>
      </trkpt>
      <trkpt lat="44.28529" lon="4.08284">
        <ele>390</ele>
        <time>2013-02-05T15:31:53Z</time>
      </trkpt>
      <trkpt lat="44.28537" lon="4.08263">
        <ele>389</ele>
        <time>2013-02-05T15:32:08Z</time>
      </trkpt>
      <trkpt lat="44.28537" lon="4.08239">
        <ele>384</ele>
        <time>2013-02-05T15:32:24Z</time>
      </trkpt>
      <trkpt lat="44.28528" lon="4.08217">
        <ele>390</ele>
        <time>2013-02-05T15:32:38Z</time>
      </trkpt>
      <trkpt lat="44.28516" lon="4.082">
        <ele>393</ele>
        <time>2013-02-05T15:32:52Z</time>
      </trkpt>
      <trkpt lat="44.28505" lon="4.0818">
        <ele>398</ele>
        <time>2013-02-05T15:33:09Z</time>
      </trkpt>
      <trkpt lat="44.28497" lon="4.0816">
        <ele>404</ele>
        <time>2013-02-05T15:33:21Z</time>
      </trkpt>
      <trkpt lat="44.28486" lon="4.0814">
        <ele>405</ele>
        <time>2013-02-05T15:33:36Z</time>
      </trkpt>
      <trkpt lat="44.28473" lon="4.08125">
        <ele>397</ele>
        <time>2013-02-05T15:33:53Z</time>
      </trkpt>
      <trkpt lat="44.28466" lon="4.08103">
        <ele>393</ele>
        <time>2013-02-05T15:34:10Z</time>
      </trkpt>
      <trkpt lat="44.28465" lon="4.08079">
        <ele>389</ele>
        <time>2013-02-05T15:34:26Z</time>
      </trkpt>
      <trkpt lat="44.28469" lon="4.08054">
        <ele>397</ele>
        <time>2013-02-05T15:34:39Z</time>
      </trkpt>
      <trkpt lat="44.28479" lon="4.08033">
        <ele>390</ele>
        <time>2013-02-05T15:34:54Z</time>
      </trkpt>
      <trkpt lat="44.28487" lon="4.08011">
        <ele>388</ele>
        <time>2013-02-05T15:35:09Z</time>
      </trkpt>
      <trkpt lat="44.28489" lon="4.07987">
        <ele>387</ele>
        <time>2013-02-05T15:35:27Z</time>
      </trkpt>
      <trkpt lat="44.28485" lon="4.07964">
        <ele>390</ele>
        <time>2013-02-05T15:36:05Z</time>
      </trkpt>
      <trkpt lat="44.28474" lon="4.07946">
        <ele>389</ele>
        <time>2013-02-05T15:36:24Z</time>
      </trkpt>
      <trkpt lat="44.28463" lon="4.07928">
        <ele>385</ele>
        <time>2013-02-05T15:36:39Z</time>
      </trkpt>
      <trkpt lat="44.28463" lon="4.07905">
        <ele>388</ele>
        <time>2013-02-05T15:36:52Z</time>
      </trkpt>
      <trkpt lat="44.28465" lon="4.07881">
        <ele>389</ele>
        <time>2013-02-05T15:37:07Z</time>
      </trkpt>
      <trkpt lat="44.28466" lon="4.07857">
        <ele>383</ele>
        <time>2013-02-05T15:37:25Z</time>
      </trkpt>
      <trkpt lat="44.28469" lon="4.07834">
        <ele>381</ele>
        <time>2013-02-05T15:37:40Z</time>
      </trkpt>
      <trkpt lat="44.28479" lon="4.07814">
        <ele>384</ele>
        <time>2013-02-05T15:37:53Z</time>
      </trkpt>
      <trkpt lat="44.28493" lon="4.07799">
        <ele>382</ele>
        <time>2013-02-05T15:38:07Z</time>
      </trkpt>
      <trkpt lat="44.28509" lon="4.07794">
        <ele>378</ele>
        <time>2013-02-05T15:38:21Z</time>
      </trkpt>
      <trkpt lat="44.28526" lon="4.07788">
        <ele>375</ele>
        <time>2013-02-05T15:38:36Z</time>
      </trkpt>
      <trkpt lat="44.28541" lon="4.07776">
        <ele>373</ele>
        <time>2013-02-05T15:38:52Z</time>
      </trkpt>
      <trkpt lat="44.28556" lon="4.07764">
        <ele>368</ele>
        <time>2013-02-05T15:39:07Z</time>
      </trkpt>
      <trkpt lat="44.28568" lon="4.07746">
        <ele>371</ele>
        <time>2013-02-05T15:39:22Z</time>
      </trkpt>
      <trkpt lat="44.28573" lon="4.07723">
        <ele>370</ele>
        <time>2013-02-05T15:39:36Z</time>
      </trkpt>
      <trkpt lat="44.28588" lon="4.07712">
        <ele>365</ele>
        <time>2013-02-05T15:39:52Z</time>
      </trkpt>
      <trkpt lat="44.28606" lon="4.07707">
        <ele>365</ele>
        <time>2013-02-05T15:40:09Z</time>
      </trkpt>
      <trkpt lat="44.28621" lon="4.07698">
        <ele>364</ele>
        <time>2013-02-05T15:40:26Z</time>
      </trkpt>
      <trkpt lat="44.28637" lon="4.07687">
        <ele>368</ele>
        <time>2013-02-05T15:40:42Z</time>
      </trkpt>
      <trkpt lat="44.28653" lon="4.07677">
        <ele>365</ele>
        <time>2013-02-05T15:40:56Z</time>
      </trkpt>
      <trkpt lat="44.28668" lon="4.07664">
        <ele>363</ele>
        <time>2013-02-05T15:41:11Z</time>
      </trkpt>
      <trkpt lat="44.28685" lon="4.07659">
        <ele>364</ele>
        <time>2013-02-05T15:41:27Z</time>
      </trkpt>
      <trkpt lat="44.28702" lon="4.07662">
        <ele>370</ele>
        <time>2013-02-05T15:41:43Z</time>
      </trkpt>
      <trkpt lat="44.28719" lon="4.07668">
        <ele>369</ele>
        <time>2013-02-05T15:41:56Z</time>
      </trkpt>
      <trkpt lat="44.28734" lon="4.07679">
        <ele>370</ele>
        <time>2013-02-05T15:42:10Z</time>
      </trkpt>
      <trkpt lat="44.28751" lon="4.07688">
        <ele>372</ele>
        <time>2013-02-05T15:42:24Z</time>
      </trkpt>
      <trkpt lat="44.28768" lon="4.07692">
        <ele>371</ele>
        <time>2013-02-05T15:42:40Z</time>
      </trkpt>
      <trkpt lat="44.28786" lon="4.07698">
        <ele>372</ele>
        <time>2013-02-05T15:42:56Z</time>
      </trkpt>
      <trkpt lat="44.28802" lon="4.07706">
        <ele>372</ele>
        <time>2013-02-05T15:43:12Z</time>
      </trkpt>
      <trkpt lat="44.28819" lon="4.07714">
        <ele>373</ele>
        <time>2013-02-05T15:43:27Z</time>
      </trkpt>
      <trkpt lat="44.28836" lon="4.0772">
        <ele>371</ele>
        <time>2013-02-05T15:43:42Z</time>
      </trkpt>
      <trkpt lat="44.28851" lon="4.07732">
        <ele>370</ele>
        <time>2013-02-05T15:43:56Z</time>
      </trkpt>
      <trkpt lat="44.28867" lon="4.07743">
        <ele>374</ele>
        <time>2013-02-05T15:44:11Z</time>
      </trkpt>
      <trkpt lat="44.28883" lon="4.07754">
        <ele>373</ele>
        <time>2013-02-05T15:44:26Z</time>
      </trkpt>
      <trkpt lat="44.28894" lon="4.07772">
        <ele>373</ele>
        <time>2013-02-05T15:44:40Z</time>
      </trkpt>
      <trkpt lat="44.28902" lon="4.07792">
        <ele>373</ele>
        <time>2013-02-05T15:44:54Z</time>
      </trkpt>
      <trkpt lat="44.28915" lon="4.07809">
        <ele>373</ele>
        <time>2013-02-05T15:45:09Z</time>
      </trkpt>
      <trkpt lat="44.2893" lon="4.07824">
        <ele>375</ele>
        <time>2013-02-05T15:45:27Z</time>
      </trkpt>
      <trkpt lat="44.28945" lon="4.07837">
        <ele>375</ele>
        <time>2013-02-05T15:45:43Z</time>
      </trkpt>
      <trkpt lat="44.2896" lon="4.07851">
        <ele>372</ele>
        <time>2013-02-05T15:45:58Z</time>
      </trkpt>
      <trkpt lat="44.28973" lon="4.07867">
        <ele>371</ele>
        <time>2013-02-05T15:46:13Z</time>
      </trkpt>
      <trkpt lat="44.28984" lon="4.07886">
        <ele>370</ele>
        <time>2013-02-05T15:46:28Z</time>
      </trkpt>
      <trkpt lat="44.28995" lon="4.07905">
        <ele>370</ele>
        <time>2013-02-05T15:46:43Z</time>
      </trkpt>
      <trkpt lat="44.28998" lon="4.07929">
        <ele>368</ele>
        <time>2013-02-05T15:46:59Z</time>
      </trkpt>
      <trkpt lat="44.29006" lon="4.07951">
        <ele>366</ele>
        <time>2013-02-05T15:47:15Z</time>
      </trkpt>
      <trkpt lat="44.29014" lon="4.07972">
        <ele>363</ele>
        <time>2013-02-05T15:47:31Z</time>
      </trkpt>
      <trkpt lat="44.29014" lon="4.07996">
        <ele>361</ele>
        <time>2013-02-05T15:47:47Z</time>
      </trkpt>
      <trkpt lat="44.29014" lon="4.08021">
        <ele>357</ele>
        <time>2013-02-05T15:48:03Z</time>
      </trkpt>
      <trkpt lat="44.29029" lon="4.08034">
        <ele>357</ele>
        <time>2013-02-05T15:48:22Z</time>
      </trkpt>
      <trkpt lat="44.29047" lon="4.08031">
        <ele>350</ele>
        <time>2013-02-05T15:48:38Z</time>
      </trkpt>
      <trkpt lat="44.29063" lon="4.08025">
        <ele>350</ele>
        <time>2013-02-05T15:48:55Z</time>
      </trkpt>
      <trkpt lat="44.29079" lon="4.08033">
        <ele>351</ele>
        <time>2013-02-05T15:49:11Z</time>
      </trkpt>
      <trkpt lat="44.29087" lon="4.08056">
        <ele>351</ele>
        <time>2013-02-05T15:49:31Z</time>
      </trkpt>
      <trkpt lat="44.291" lon="4.08072">
        <ele>346</ele>
        <time>2013-02-05T15:49:57Z</time>
      </trkpt>
      <trkpt lat="44.29113" lon="4.08088">
        <ele>345</ele>
        <time>2013-02-05T15:50:30Z</time>
      </trkpt>
      <trkpt lat="44.29127" lon="4.08102">
        <ele>346</ele>
        <time>2013-02-05T15:50:56Z</time>
      </trkpt>
      <trkpt lat="44.2914" lon="4.08118">
        <ele>351</ele>
        <time>2013-02-05T15:51:11Z</time>
      </trkpt>
      <trkpt lat="44.29147" lon="4.0814">
        <ele>346</ele>
        <time>2013-02-05T15:51:27Z</time>
      </trkpt>
      <trkpt lat="44.29144" lon="4.08165">
        <ele>345</ele>
        <time>2013-02-05T15:51:42Z</time>
      </trkpt>
      <trkpt lat="44.29141" lon="4.08188">
        <ele>342</ele>
        <time>2013-02-05T15:51:59Z</time>
      </trkpt>
      <trkpt lat="44.29145" lon="4.08212">
        <ele>347</ele>
        <time>2013-02-05T15:52:17Z</time>
      </trkpt>
      <trkpt lat="44.29159" lon="4.08227">
        <ele>352</ele>
        <time>2013-02-05T15:52:34Z</time>
      </trkpt>
      <trkpt lat="44.29173" lon="4.08241">
        <ele>355</ele>
        <time>2013-02-05T15:52:52Z</time>
      </trkpt>
      <trkpt lat="44.29189" lon="4.0825">
        <ele>352</ele>
        <time>2013-02-05T15:53:08Z</time>
      </trkpt>
      <trkpt lat="44.29204" lon="4.0826">
        <ele>352</ele>
        <time>2013-02-05T15:53:21Z</time>
      </trkpt>
      <trkpt lat="44.29216" lon="4.08279">
        <ele>353</ele>
        <time>2013-02-05T15:53:39Z</time>
      </trkpt>
      <trkpt lat="44.29228" lon="4.08295">
        <ele>354</ele>
        <time>2013-02-05T15:53:57Z</time>
      </trkpt>
      <trkpt lat="44.29242" lon="4.0831">
        <ele>358</ele>
        <time>2013-02-05T15:54:16Z</time>
      </trkpt>
      <trkpt lat="44.2926" lon="4.08316">
        <ele>356</ele>
        <time>2013-02-05T15:54:33Z</time>
      </trkpt>
      <trkpt lat="44.29276" lon="4.08323">
        <ele>357</ele>
        <time>2013-02-05T15:54:52Z</time>
      </trkpt>
      <trkpt lat="44.29294" lon="4.08327">
        <ele>353</ele>
        <time>2013-02-05T15:55:32Z</time>
      </trkpt>
      <trkpt lat="44.29311" lon="4.08331">
        <ele>346</ele>
        <time>2013-02-05T15:55:50Z</time>
      </trkpt>
      <trkpt lat="44.29329" lon="4.08332">
        <ele>342</ele>
        <time>2013-02-05T15:56:06Z</time>
      </trkpt>
      <trkpt lat="44.29346" lon="4.08336">
        <ele>341</ele>
        <time>2013-02-05T15:56:30Z</time>
      </trkpt>
      <trkpt lat="44.29363" lon="4.08345">
        <ele>338</ele>
        <time>2013-02-05T15:56:54Z</time>
      </trkpt>
      <trkpt lat="44.29379" lon="4.08355">
        <ele>334</ele>
        <time>2013-02-05T15:57:15Z</time>
      </trkpt>
      <trkpt lat="44.29396" lon="4.0836">
        <ele>329</ele>
        <time>2013-02-05T15:57:41Z</time>
      </trkpt>
      <trkpt lat="44.29413" lon="4.08368">
        <ele>325</ele>
        <time>2013-02-05T15:57:59Z</time>
      </trkpt>
      <trkpt lat="44.29429" lon="4.0838">
        <ele>320</ele>
        <time>2013-02-05T15:58:21Z</time>
      </trkpt>
      <trkpt lat="44.29446" lon="4.08387">
        <ele>316</ele>
        <time>2013-02-05T15:58:46Z</time>
      </trkpt>
      <trkpt lat="44.29462" lon="4.08391">
        <ele>320</ele>
        <time>2013-02-05T15:59:03Z</time>
      </trkpt>
      <trkpt lat="44.2948" lon="4.08395">
        <ele>318</ele>
        <time>2013-02-05T15:59:21Z</time>
      </trkpt>
      <trkpt lat="44.29497" lon="4.08401">
        <ele>315</ele>
        <time>2013-02-05T15:59:47Z</time>
      </trkpt>
      <trkpt lat="44.29515" lon="4.08401">
        <ele>313</ele>
        <time>2013-02-05T16:00:14Z</time>
      </trkpt>
      <trkpt lat="44.29532" lon="4.08409">
        <ele>306</ele>
        <time>2013-02-05T16:00:41Z</time>
      </trkpt>
      <trkpt lat="44.29546" lon="4.08395">
        <ele>295</ele>
        <time>2013-02-05T16:01:04Z</time>
      </trkpt>
      <trkpt lat="44.29554" lon="4.08372">
        <ele>292</ele>
        <time>2013-02-05T16:01:29Z</time>
      </trkpt>
      <trkpt lat="44.29561" lon="4.0835">
        <ele>287</ele>
        <time>2013-02-05T16:01:54Z</time>
      </trkpt>
      <trkpt lat="44.29572" lon="4.08332">
        <ele>285</ele>
        <time>2013-02-05T16:02:21Z</time>
      </trkpt>
      <trkpt lat="44.29587" lon="4.08318">
        <ele>282</ele>
        <time>2013-02-05T16:02:42Z</time>
      </trkpt>
      <trkpt lat="44.29598" lon="4.083">
        <ele>276</ele>
        <time>2013-02-05T16:03:14Z</time>
      </trkpt>
      <trkpt lat="44.2961" lon="4.08281">
        <ele>272</ele>
        <time>2013-02-05T16:03:46Z</time>
      </trkpt>
      <trkpt lat="44.29627" lon="4.08272">
        <ele>280</ele>
        <time>2013-02-05T16:07:29Z</time>
      </trkpt>
      <trkpt lat="44.29636" lon="4.08293">
        <ele>268</ele>
        <time>2013-02-05T16:09:39Z</time>
      </trkpt>
      <trkpt lat="44.29644" lon="4.08315">
        <ele>263</ele>
        <time>2013-02-05T16:10:00Z</time>
      </trkpt>
      <trkpt lat="44.29654" lon="4.08335">
        <ele>247</ele>
        <time>2013-02-05T16:10:26Z</time>
      </trkpt>
      <trkpt lat="44.29639" lon="4.0835">
        <ele>248</ele>
        <time>2013-02-05T16:10:50Z</time>
      </trkpt>
      <trkpt lat="44.29643" lon="4.08374">
        <ele>252</ele>
        <time>2013-02-05T16:11:10Z</time>
      </trkpt>
      <trkpt lat="44.29644" lon="4.08398">
        <ele>249</ele>
        <time>2013-02-05T16:11:30Z</time>
      </trkpt>
      <trkpt lat="44.29651" lon="4.0842">
        <ele>245</ele>
        <time>2013-02-05T16:11:50Z</time>
      </trkpt>
      <trkpt lat="44.29646" lon="4.08443">
        <ele>239</ele>
        <time>2013-02-05T16:12:06Z</time>
      </trkpt>
      <trkpt lat="44.29643" lon="4.08466">
        <ele>233</ele>
        <time>2013-02-05T16:12:23Z</time>
      </trkpt>
      <trkpt lat="44.29644" lon="4.0849">
        <ele>226</ele>
        <time>2013-02-05T16:12:44Z</time>
      </trkpt>
      <trkpt lat="44.29639" lon="4.08513">
        <ele>239</ele>
        <time>2013-02-05T16:13:04Z</time>
      </trkpt>
      <trkpt lat="44.29642" lon="4.08537">
        <ele>253</ele>
        <time>2013-02-05T16:13:19Z</time>
      </trkpt>
      <trkpt lat="44.29648" lon="4.08561">
        <ele>258</ele>
        <time>2013-02-05T16:13:38Z</time>
      </trkpt>
      <trkpt lat="44.29652" lon="4.08584">
        <ele>257</ele>
        <time>2013-02-05T16:13:59Z</time>
      </trkpt>
      <trkpt lat="44.29657" lon="4.08608">
        <ele>245</ele>
        <time>2013-02-05T16:14:22Z</time>
      </trkpt>
      <trkpt lat="44.29662" lon="4.08632">
        <ele>240</ele>
        <time>2013-02-05T16:14:40Z</time>
      </trkpt>
      <trkpt lat="44.29662" lon="4.08656">
        <ele>234</ele>
        <time>2013-02-05T16:15:02Z</time>
      </trkpt>
      <trkpt lat="44.29662" lon="4.08681">
        <ele>224</ele>
        <time>2013-02-05T16:15:27Z</time>
      </trkpt>
      <trkpt lat="44.29654" lon="4.08701">
        <ele>226</ele>
        <time>2013-02-05T16:15:47Z</time>
      </trkpt>
      <trkpt lat="44.29639" lon="4.08712">
        <ele>244</ele>
        <time>2013-02-05T16:16:01Z</time>
      </trkpt>
      <trkpt lat="44.29621" lon="4.0871">
        <ele>260</ele>
        <time>2013-02-05T16:17:10Z</time>
      </trkpt>
      <trkpt lat="44.29606" lon="4.08699">
        <ele>259</ele>
        <time>2013-02-05T16:17:29Z</time>
      </trkpt>
      <trkpt lat="44.29591" lon="4.08689">
        <ele>263</ele>
        <time>2013-02-05T16:17:47Z</time>
      </trkpt>
      <trkpt lat="44.29574" lon="4.08689">
        <ele>260</ele>
        <time>2013-02-05T16:18:12Z</time>
      </trkpt>
      <trkpt lat="44.29558" lon="4.08681">
        <ele>257</ele>
        <time>2013-02-05T16:18:25Z</time>
      </trkpt>
      <trkpt lat="44.29541" lon="4.08675">
        <ele>251</ele>
        <time>2013-02-05T16:18:47Z</time>
      </trkpt>
      <trkpt lat="44.29524" lon="4.08677">
        <ele>248</ele>
        <time>2013-02-05T16:19:05Z</time>
      </trkpt>
      <trkpt lat="44.29506" lon="4.08682">
        <ele>250</ele>
        <time>2013-02-05T16:19:30Z</time>
      </trkpt>
      <trkpt lat="44.29489" lon="4.08681">
        <ele>246</ele>
        <time>2013-02-05T16:20:05Z</time>
      </trkpt>
      <trkpt lat="44.29491" lon="4.08705">
        <ele>239</ele>
        <time>2013-02-05T16:20:36Z</time>
      </trkpt>
      <trkpt lat="44.2949" lon="4.0873">
        <ele>240</ele>
        <time>2013-02-05T16:20:58Z</time>
      </trkpt>
      <trkpt lat="44.29478" lon="4.08747">
        <ele>241</ele>
        <time>2013-02-05T16:21:28Z</time>
      </trkpt>
      <trkpt lat="44.29463" lon="4.0876">
        <ele>244</ele>
        <time>2013-02-05T16:22:18Z</time>
      </trkpt>
      <trkpt lat="44.2945" lon="4.08776">
        <ele>240</ele>
        <time>2013-02-05T16:22:40Z</time>
      </trkpt>
      <trkpt lat="44.29435" lon="4.08789">
        <ele>240</ele>
        <time>2013-02-05T16:23:00Z</time>
      </trkpt>
      <trkpt lat="44.29418" lon="4.088">
        <ele>248</ele>
        <time>2013-02-05T16:23:16Z</time>
      </trkpt>
      <trkpt lat="44.29401" lon="4.088">
        <ele>251</ele>
        <time>2013-02-05T16:23:32Z</time>
      </trkpt>
      <trkpt lat="44.29384" lon="4.08798">
        <ele>252</ele>
        <time>2013-02-05T16:23:50Z</time>
      </trkpt>
      <trkpt lat="44.29367" lon="4.08791">
        <ele>254</ele>
        <time>2013-02-05T16:24:05Z</time>
      </trkpt>
      <trkpt lat="44.2935" lon="4.08783">
        <ele>255</ele>
        <time>2013-02-05T16:24:21Z</time>
      </trkpt>
      <trkpt lat="44.29333" lon="4.08776">
        <ele>247</ele>
        <time>2013-02-05T16:24:43Z</time>
      </trkpt>
      <trkpt lat="44.29316" lon="4.08779">
        <ele>240</ele>
        <time>2013-02-05T16:25:04Z</time>
      </trkpt>
      <trkpt lat="44.29299" lon="4.08786">
        <ele>231</ele>
        <time>2013-02-05T16:25:24Z</time>
      </trkpt>
      <trkpt lat="44.29287" lon="4.08802">
        <ele>227</ele>
        <time>2013-02-05T16:25:42Z</time>
      </trkpt>
      <trkpt lat="44.29273" lon="4.08818">
        <ele>229</ele>
        <time>2013-02-05T16:26:02Z</time>
      </trkpt>
      <trkpt lat="44.29259" lon="4.08833">
        <ele>236</ele>
        <time>2013-02-05T16:26:18Z</time>
      </trkpt>
      <trkpt lat="44.29246" lon="4.08846">
        <ele>226</ele>
        <time>2013-02-05T16:26:39Z</time>
      </trkpt>
      <trkpt lat="44.29239" lon="4.08867">
        <ele>215</ele>
        <time>2013-02-05T16:26:59Z</time>
      </trkpt>
      <trkpt lat="44.29239" lon="4.08891">
        <ele>217</ele>
        <time>2013-02-05T16:27:13Z</time>
      </trkpt>
      <trkpt lat="44.29235" lon="4.08915">
        <ele>208</ele>
        <time>2013-02-05T16:27:35Z</time>
      </trkpt>
      <trkpt lat="44.29233" lon="4.0894">
        <ele>206</ele>
        <time>2013-02-05T16:27:55Z</time>
      </trkpt>
      <trkpt lat="44.2925" lon="4.08946">
        <ele>203</ele>
        <time>2013-02-05T16:28:15Z</time>
      </trkpt>
      <trkpt lat="44.29265" lon="4.08958">
        <ele>206</ele>
        <time>2013-02-05T16:28:32Z</time>
      </trkpt>
      <trkpt lat="44.29269" lon="4.08981">
        <ele>203</ele>
        <time>2013-02-05T16:28:49Z</time>
      </trkpt>
      <trkpt lat="44.2928" lon="4.09">
        <ele>203</ele>
        <time>2013-02-05T16:29:03Z</time>
      </trkpt>
      <trkpt lat="44.29287" lon="4.09021">
        <ele>198</ele>
        <time>2013-02-05T16:29:20Z</time>
      </trkpt>
    </trkseg>
  </trk>
</gpx>